San Francisco, CA (94151)

2:06 AM PDT on August 29, 2014 (GMT -0700)
Financial District | Change Station
CLOSE
Current Station
Personal Weather Station
Location: San Francisco, CA
Elevation: 100 ft
Nearby Weather Stations

Elev 100 ft 37.79 °N, 122.40 °W | Updated 19 seconds ago

Mostly Cloudy
Mostly Cloudy
61.2 °F
Feels Like 61.2 °F
N
2.7
Wind Variable Wind from South
Gusts 3.1 mph

Today
High -- | Low -- °F
--% Chance of Precip.
Yesterday
High -- | Low -- °F
Precip. -- in
6:37 AM 7:43 PM
Waxing Crescent, 13% visible
Pressure 29.97 in
Visibility 10.0 miles
Clouds Overcast 800 ft
Dew Point 54 °F
Humidity 77%
Rainfall 0.00 in
Snow Depth Not available.
UV 0.0 out of 12
Pollen 7.30 out of 12
PM2.5 Good
Flu Activity Not available.
METAR KOAK 290853Z 00000KT 10SM OVC008 17/14 A2997 RMK AO2 SLP147 T01670139 58003 $

More Conditions Fewer Conditions

Pressure 29.97 in
Visibility 10.0 miles
Clouds Overcast 800 ft
Dew Point 54 °F
Humidity 77%
Rainfall 0.00 in
Snow Depth Not available.
UV 0.0 out of 12
Pollen 7.30 out of 12
PM2.5 Good
Flu Activity Not available.
METAR KOAK 290853Z 00000KT 10SM OVC008 17/14 A2997 RMK AO2 SLP147 T01670139 58003 $

More Conditions Fewer Conditions

10-Day Weather Forecast

Almanac

Astronomy

Aug. 29, 2014 Rise Set
Actual Time 6:37 AM PDT 7:43 PM PDT
Civil Twilight 6:10 AM PDT 8:10 PM PDT
Nautical Twilight 5:37 AM PDT 8:42 PM PDT
Astronomical Twilight 5:04 AM PDT 9:15 PM PDT
Moon 10:27 AM PDT 9:49 PM PDT
Length of Visible Light 13h 59m
Length of Day
13h 05m
Tomorrow will be 2m 19s shorter.
Waxing Crescent, 13% of the Moon is Illuminated
Today
Waxing Crescent
Sep 2
First Quarter
Sep 8
Full
Sep 15
Last Quarter
Sep 24
New

Today's Extremes

State Highs State Lows

Community

WunderPhotos

Upload Photos

1,748,203 photos uploaded!

Nearby

Air Quality

  Air Quality AQ Index Pollutant
Yesterday Good
OZONE
Yesterday Good
PM2.5
Current Good
PM2.5
Friday Good
PM2.5
Saturday Good
PM2.5
Sunday Good
OZONE
Monday Good
OZONE
Tuesday Good
PM2.5

Snow Depth

Station Depth Elevation
Blue Lakes 0 in 8000 ft
Echo Peak 0 in 7800 ft
Forestdale Creek 0 in 8029 ft
Rubicon #2 0 in 7500 ft
Fallen Leaf 0 in 6300 ft

Earthquake Activity

City Distance Mag. Time & Date
Napa, California 31 miles 2.6 11:57 AM PDT
2014-08-27
The Geysers, California 74 miles 2.6 7:42 AM PDT
2014-08-27
Soledad, California 111 miles 2.6 12:15 PM PDT
2014-08-26
Napa, California 30 miles 2.5 10:56 AM PDT
2014-08-26
Minimum magnitude displayed is 2.5.

Coastal Water Temperatures

Place Temperature
San Francisco, CA 66.0 °F
Richmond, CA 66.9 °F
Port Chicago, CA 69.1 °F

Nearby Weather Stations